createdAt,value
2018-01-03T00:00:27.161Z,985.1467
2018-01-03T00:01:27.172Z,985.0847
2018-01-03T00:02:27.154Z,985.0278
2018-01-03T00:03:27.179Z,984.8912
2018-01-03T00:04:27.158Z,984.8881
2018-01-03T00:05:27.164Z,984.8127
2018-01-03T00:06:27.172Z,984.7155
2018-01-03T00:07:27.162Z,984.7051
2018-01-03T00:08:27.185Z,984.6049
2018-01-03T00:09:27.170Z,984.581
2018-01-03T00:10:27.175Z,984.5377
2018-01-03T00:11:27.173Z,984.4655
2018-01-03T00:12:27.165Z,984.4435
2018-01-03T00:13:27.190Z,984.3494
2018-01-03T00:14:27.179Z,984.2977
2018-01-03T00:15:27.175Z,984.2544
2018-01-03T00:16:27.180Z,984.1819
2018-01-03T00:17:27.172Z,984.1685
2018-01-03T00:18:27.449Z,984.1468
2018-01-03T00:19:27.178Z,984.1736
2018-01-03T00:20:27.173Z,984.034
2018-01-03T00:21:27.179Z,984.0093
2018-01-03T00:22:27.179Z,983.913
2018-01-03T00:23:27.206Z,983.9182
2018-01-03T00:24:27.179Z,983.9233
2018-01-03T00:25:27.176Z,983.8965
2018-01-03T00:26:27.180Z,983.7807
2018-01-03T00:27:27.182Z,983.7404
2018-01-03T00:28:27.208Z,983.6649
2018-01-03T00:29:27.189Z,983.697
2018-01-03T00:30:27.192Z,983.573
2018-01-03T00:31:27.184Z,983.6029
2018-01-03T00:32:27.181Z,983.5326
2018-01-03T00:33:27.213Z,983.5245
2018-01-03T00:34:27.187Z,983.4302
2018-01-03T00:35:27.264Z,983.4788
2018-01-03T00:36:27.219Z,983.4221
2018-01-03T00:37:27.189Z,983.4168
2018-01-03T00:38:27.246Z,983.3066
2018-01-03T00:39:27.197Z,983.2797
2018-01-03T00:40:27.209Z,983.2042
2018-01-03T00:41:27.201Z,983.1935
2018-01-03T00:42:27.196Z,983.1127
2018-01-03T00:43:27.218Z,983.0832
2018-01-03T00:44:27.196Z,983.0295
2018-01-03T00:45:27.197Z,982.9779
2018-01-03T00:46:27.202Z,982.954
2018-01-03T00:47:27.209Z,982.8516
2018-01-03T00:48:27.229Z,982.8248
2018-01-03T00:49:27.203Z,982.8217
2018-01-03T00:50:27.266Z,982.7679
2018-01-03T00:51:27.281Z,982.7762
2018-01-03T00:52:27.215Z,982.6843
2018-01-03T00:53:27.207Z,982.7545
2018-01-03T00:54:27.239Z,982.7246
2018-01-03T00:55:27.209Z,982.6357
2018-01-03T00:56:27.217Z,982.6252
2018-01-03T00:57:27.216Z,982.5632
2018-01-03T00:58:27.215Z,982.5551
2018-01-03T00:59:27.238Z,982.5148
2018-01-03T01:00:27.214Z,982.3937
2018-01-03T01:01:27.213Z,982.4445
2018-01-03T01:02:27.212Z,982.3235
2018-01-03T01:03:27.223Z,982.4176
2018-01-03T01:04:27.246Z,982.3049
2018-01-03T01:05:27.280Z,982.3235
2018-01-03T01:06:27.220Z,982.2562
2018-01-03T01:07:27.214Z,982.154
2018-01-03T01:08:27.256Z,982.0651
2018-01-03T01:09:27.249Z,982.154
2018-01-03T01:10:27.226Z,982.1188
2018-01-03T01:11:27.220Z,982.1188
2018-01-03T01:12:27.225Z,982.0568
2018-01-03T01:13:27.232Z,982.0139
2018-01-03T01:14:27.253Z,982.0248
2018-01-03T01:15:27.228Z,981.9682
2018-01-03T01:16:27.227Z,981.9146
2018-01-03T01:17:27.312Z,981.8204
2018-01-03T01:18:27.231Z,981.8174
2018-01-03T01:19:27.255Z,981.8256
2018-01-03T01:20:27.233Z,981.804
2018-01-03T01:21:27.233Z,981.7532
2018-01-03T01:22:27.256Z,981.7419
2018-01-03T01:23:27.239Z,981.6292
2018-01-03T01:24:27.270Z,981.5351
2018-01-03T01:25:27.236Z,981.5455
2018-01-03T01:26:27.238Z,981.4969
2018-01-03T01:27:27.244Z,981.5104
2018-01-03T01:28:27.282Z,981.3999
2018-01-03T01:29:27.276Z,981.3304
2018-01-03T01:30:27.290Z,981.2954
2018-01-03T01:31:27.250Z,981.3304
2018-01-03T01:32:27.239Z,981.2468
2018-01-03T01:33:27.245Z,981.1527
2018-01-03T01:34:27.268Z,981.1393
2018-01-03T01:35:27.250Z,981.0235
2018-01-03T01:36:27.244Z,981.0587
2018-01-03T01:37:27.242Z,980.9698
2018-01-03T01:38:27.253Z,980.9645
2018-01-03T01:39:27.281Z,980.8704
2018-01-03T01:40:27.242Z,980.8353
2018-01-03T01:41:27.266Z,980.8212
2018-01-03T01:42:27.255Z,980.7457
2018-01-03T01:43:27.256Z,980.692
2018-01-03T01:44:27.280Z,980.633
2018-01-03T01:45:27.255Z,980.5926
2018-01-03T01:46:27.259Z,980.5254
2018-01-03T01:47:27.266Z,980.4955
2018-01-03T01:48:27.263Z,980.4418
2018-01-03T01:49:27.261Z,980.4283
2018-01-03T01:50:27.258Z,980.3477
2018-01-03T01:51:27.257Z,980.3667
2018-01-03T01:52:27.263Z,980.3343
2018-01-03T01:53:27.262Z,980.2618
2018-01-03T01:54:27.270Z,980.2267
2018-01-03T01:55:27.271Z,980.2106
2018-01-03T01:56:27.266Z,980.127
2018-01-03T01:57:27.267Z,980.0896
2018-01-03T01:58:27.273Z,980.0464
2018-01-03T01:59:27.274Z,980.0464
2018-01-03T02:00:27.270Z,979.9926
2018-01-03T02:01:27.285Z,979.9979
2018-01-03T02:02:27.272Z,979.9627
2018-01-03T02:03:27.273Z,979.9576
2018-01-03T02:04:27.269Z,979.8687
2018-01-03T02:05:27.276Z,979.8313
2018-01-03T02:06:27.281Z,979.6566
2018-01-03T02:07:27.274Z,979.6403
2018-01-03T02:08:27.270Z,979.6051
2018-01-03T02:09:27.298Z,979.5274
2018-01-03T02:10:27.280Z,979.5596
2018-01-03T02:11:27.280Z,979.608
2018-01-03T02:12:27.285Z,979.5835
2018-01-03T02:13:27.277Z,979.5835
2018-01-03T02:14:27.317Z,979.5215
2018-01-03T02:15:27.281Z,979.4035
2018-01-03T02:16:27.289Z,979.2848
2018-01-03T02:17:27.289Z,979.3923
2018-01-03T02:18:27.282Z,979.3684
2018-01-03T02:19:27.320Z,979.2796
2018-01-03T02:20:27.295Z,979.0996
2018-01-03T02:21:27.289Z,979.0056
2018-01-03T02:22:27.309Z,978.9489
2018-01-03T02:23:27.291Z,979.0728
2018-01-03T02:24:27.324Z,979.075
2018-01-03T02:25:27.294Z,978.9757
2018-01-03T02:26:27.296Z,979.0213
2018-01-03T02:27:27.298Z,978.9645
2018-01-03T02:28:27.304Z,978.8488
2018-01-03T02:29:27.316Z,978.7816
2018-01-03T02:30:27.302Z,978.7308
2018-01-03T02:31:27.299Z,978.6741
2018-01-03T02:32:27.309Z,978.7413
2018-01-03T02:33:27.300Z,978.6473
2018-01-03T02:34:27.323Z,978.5424
2018-01-03T02:35:27.308Z,978.5424
2018-01-03T02:36:27.312Z,978.3945
2018-01-03T02:37:27.311Z,978.3513
2018-01-03T02:38:27.307Z,978.2385
2018-01-03T02:39:27.334Z,978.1982
2018-01-03T02:40:27.372Z,978.2117
2018-01-03T02:41:27.322Z,978.1848
2018-01-03T02:42:27.336Z,978.1497
2018-01-03T02:43:42.743Z,978.031
2018-01-03T02:44:27.346Z,978.0042
2018-01-03T02:45:27.336Z,977.9638
2018-01-03T02:46:27.423Z,977.9258
2018-01-03T02:47:27.313Z,977.8236
2018-01-03T02:48:27.317Z,977.84
2018-01-03T02:49:27.339Z,977.6467
2018-01-03T02:50:27.312Z,977.6168
2018-01-03T02:51:27.312Z,977.5496
2018-01-03T02:52:27.327Z,977.3936
2018-01-03T02:53:27.329Z,977.4152
2018-01-03T02:54:27.362Z,977.3668
2018-01-03T02:55:27.326Z,977.251
2018-01-03T02:56:27.317Z,977.2375
2018-01-03T02:57:27.327Z,977.0817
2018-01-03T02:58:27.325Z,977.0383
2018-01-03T02:59:27.323Z,977.0226
2018-01-03T03:00:27.366Z,976.9665
2018-01-03T03:01:27.779Z,976.9641
2018-01-03T03:02:27.445Z,976.8672
2018-01-03T03:03:27.331Z,976.8889
2018-01-03T03:04:27.325Z,976.6796
2018-01-03T03:05:27.352Z,976.6446
2018-01-03T03:06:27.333Z,976.6232
2018-01-03T03:07:27.332Z,976.5695
2018-01-03T03:08:28.906Z,976.5051
2018-01-03T03:09:27.333Z,976.4088
2018-01-03T03:10:27.354Z,976.3416
2018-01-03T03:11:27.342Z,976.2907
2018-01-03T03:12:27.335Z,976.3123
2018-01-03T03:13:27.334Z,976.2316
2018-01-03T03:14:27.336Z,976.2078
2018-01-03T03:15:27.362Z,976.1083
2018-01-03T03:16:27.346Z,976.0978
2018-01-03T03:17:27.339Z,976.0709
2018-01-03T03:18:27.340Z,975.9985
2018-01-03T03:19:27.338Z,975.969
2018-01-03T03:20:27.380Z,975.9391
2018-01-03T03:21:27.350Z,975.9204
2018-01-03T03:22:27.349Z,975.7001
2018-01-03T03:23:27.354Z,975.6738
2018-01-03T03:24:27.342Z,975.5744
2018-01-03T03:25:27.368Z,975.5692
2018-01-03T03:26:27.363Z,975.5048
2018-01-03T03:27:27.349Z,975.5427
2018-01-03T03:28:27.352Z,975.3546
2018-01-03T03:29:27.354Z,975.2684
2018-01-03T03:30:27.382Z,975.2361
2018-01-03T03:31:27.356Z,975.1718
2018-01-03T03:32:27.386Z,975.1531
2018-01-03T03:33:27.379Z,975.0643
2018-01-03T03:34:27.355Z,974.9434
2018-01-03T03:35:27.377Z,974.9327
2018-01-03T03:36:27.363Z,974.8602
2018-01-03T03:37:29.186Z,974.9112
2018-01-03T03:38:27.367Z,974.8521
2018-01-03T03:39:27.363Z,974.7177
2018-01-03T03:40:27.384Z,974.6237
2018-01-03T03:41:27.368Z,974.5324
2018-01-03T03:42:27.361Z,974.5352
2018-01-03T03:43:27.364Z,974.4383
2018-01-03T03:44:27.367Z,974.3203
2018-01-03T03:45:27.376Z,974.178
2018-01-03T03:46:27.366Z,974.1512
2018-01-03T03:47:27.372Z,974.1646
2018-01-03T03:48:27.365Z,974.3016
2018-01-03T03:49:27.383Z,974.2776
2018-01-03T03:50:27.372Z,974.1163
2018-01-03T03:51:27.372Z,974.1028
2018-01-03T03:52:27.377Z,973.9252
2018-01-03T03:53:27.372Z,973.8636
2018-01-03T03:54:27.378Z,973.7749
2018-01-03T03:55:27.396Z,973.7725
2018-01-03T03:56:27.380Z,973.7639
2018-01-03T03:57:27.378Z,973.7182
2018-01-03T03:58:27.382Z,973.7019
2018-01-03T03:59:27.375Z,973.5968
2018-01-03T04:00:27.389Z,973.4888
2018-01-03T04:01:27.379Z,973.4888
2018-01-03T04:02:27.388Z,973.3867
2018-01-03T04:03:27.386Z,973.3653
2018-01-03T04:04:27.385Z,973.4191
2018-01-03T04:05:27.406Z,973.3544
2018-01-03T04:06:27.401Z,973.2496
2018-01-03T04:07:27.385Z,973.2012
2018-01-03T04:08:27.383Z,973.1071
2018-01-03T04:09:27.384Z,973.0371
2018-01-03T04:10:27.389Z,973.1259
2018-01-03T04:11:27.388Z,973.064
2018-01-03T04:12:27.392Z,972.9751
2018-01-03T04:13:27.395Z,972.9938
2018-01-03T04:14:27.399Z,972.9026
2018-01-03T04:15:27.419Z,972.8298
2018-01-03T04:16:27.396Z,972.7035
2018-01-03T04:17:27.401Z,972.6417
2018-01-03T04:18:27.402Z,972.6176
2018-01-03T04:19:27.400Z,972.5528
2018-01-03T04:20:27.428Z,972.596
2018-01-03T04:21:27.406Z,972.467
2018-01-03T04:22:27.403Z,972.3488
2018-01-03T04:23:27.406Z,972.2571
2018-01-03T04:24:27.402Z,972.2601
2018-01-03T04:25:27.426Z,972.0796
2018-01-03T04:26:27.429Z,972.0849
2018-01-03T04:27:27.404Z,972.0446
2018-01-03T04:28:27.408Z,972.0312
2018-01-03T04:29:27.424Z,971.8268
2018-01-03T04:30:27.432Z,971.8268
2018-01-03T04:31:27.410Z,971.757
2018-01-03T04:32:27.414Z,971.687
2018-01-03T04:33:27.406Z,971.5662
2018-01-03T04:34:27.417Z,971.472
2018-01-03T04:35:27.445Z,971.3267
2018-01-03T04:36:27.417Z,971.4126
2018-01-03T04:37:27.500Z,971.4098
2018-01-03T04:38:27.427Z,971.3829
2018-01-03T04:39:27.423Z,971.3613
2018-01-03T04:40:27.444Z,971.2485
2018-01-03T04:41:27.425Z,971.1219
2018-01-03T04:42:27.423Z,970.9929
2018-01-03T04:43:27.420Z,970.8694
2018-01-03T04:44:27.421Z,970.8022
2018-01-03T04:45:27.465Z,970.6599
2018-01-03T04:46:27.439Z,970.5845
2018-01-03T04:47:27.430Z,970.6382
2018-01-03T04:48:27.422Z,970.5226
2018-01-03T04:49:27.431Z,970.4877
2018-01-03T04:50:27.452Z,970.3773
2018-01-03T04:51:27.428Z,970.3586
2018-01-03T04:52:27.438Z,970.2671
2018-01-03T04:53:27.424Z,970.2187
2018-01-03T04:54:27.433Z,970.1865
2018-01-03T04:55:27.452Z,970.1543
2018-01-03T04:56:27.436Z,970.2914
2018-01-03T04:57:27.431Z,970.2081
2018-01-03T04:58:27.452Z,970.0496
2018-01-03T04:59:27.436Z,970.0256
2018-01-03T05:00:27.459Z,970.0121
2018-01-03T05:01:27.437Z,969.9852
2018-01-03T05:02:27.441Z,969.9261
2018-01-03T05:03:27.436Z,969.8806
2018-01-03T05:04:27.438Z,969.8455
2018-01-03T05:05:27.465Z,969.9718
2018-01-03T05:06:27.474Z,969.9584
2018-01-03T05:07:27.443Z,969.8668
2018-01-03T05:08:27.445Z,969.7352
2018-01-03T05:09:27.511Z,969.6412
2018-01-03T05:10:27.476Z,969.6465
2018-01-03T05:11:27.635Z,969.7031
2018-01-03T05:12:27.451Z,969.5578
2018-01-03T05:13:27.448Z,969.4879
2018-01-03T05:14:27.453Z,969.4691
2018-01-03T05:15:27.467Z,969.3588
2018-01-03T05:16:27.451Z,969.2567
2018-01-03T05:17:27.467Z,969.1895
2018-01-03T05:18:29.228Z,969.1545
2018-01-03T05:19:27.924Z,969.141
2018-01-03T05:20:27.477Z,969.1679
2018-01-03T05:21:27.457Z,969.1114
2018-01-03T05:22:27.465Z,969.0712
2018-01-03T05:23:27.459Z,968.9584
2018-01-03T05:24:27.459Z,968.8777
2018-01-03T05:25:27.491Z,968.9559
2018-01-03T05:26:27.461Z,969.0149
2018-01-03T05:27:27.512Z,969.0499
2018-01-03T05:28:27.790Z,969.0149
2018-01-03T05:29:27.460Z,968.929
2018-01-03T05:30:27.765Z,968.8562
2018-01-03T05:31:27.465Z,968.7059
2018-01-03T05:32:27.481Z,968.5554
2018-01-03T05:33:34.592Z,968.5715
2018-01-03T05:34:27.465Z,968.5554
2018-01-03T05:35:27.472Z,968.5366
2018-01-03T05:36:27.477Z,968.3889
2018-01-03T05:37:27.478Z,968.2491
2018-01-03T05:38:27.474Z,968.4076
2018-01-03T05:39:27.478Z,968.4048
2018-01-03T05:40:27.501Z,968.5526
2018-01-03T05:41:27.478Z,968.5257
2018-01-03T05:42:27.486Z,968.5257
2018-01-03T05:43:27.482Z,968.2221
2018-01-03T05:44:27.480Z,968.3617
2018-01-03T05:45:27.483Z,968.3992
2018-01-03T05:46:27.492Z,968.3052
2018-01-03T05:47:27.481Z,968.4155
2018-01-03T05:48:27.480Z,968.3402
2018-01-03T05:49:27.488Z,968.0634
2018-01-03T05:50:27.483Z,967.7947
2018-01-03T05:51:27.483Z,967.8619
2018-01-03T05:52:27.484Z,967.8298
2018-01-03T05:53:27.493Z,968.0366
2018-01-03T05:54:27.485Z,968.007
2018-01-03T05:55:27.492Z,968.074
2018-01-03T05:56:27.496Z,968.1385
2018-01-03T05:57:27.490Z,968.1438
2018-01-03T05:58:27.488Z,968.0795
2018-01-03T05:59:27.519Z,967.9666
2018-01-03T06:00:27.489Z,967.9935
2018-01-03T06:01:27.493Z,967.8563
2018-01-03T06:02:27.496Z,967.8698
2018-01-03T06:03:27.494Z,967.7946
2018-01-03T06:04:27.501Z,967.7758
2018-01-03T06:05:27.502Z,967.6793
2018-01-03T06:06:27.523Z,967.5959
2018-01-03T06:07:27.500Z,967.6094
2018-01-03T06:08:27.499Z,967.6335
2018-01-03T06:09:27.495Z,967.6497
2018-01-03T06:10:27.504Z,967.6013
2018-01-03T06:11:27.525Z,967.6066
2018-01-03T06:12:27.504Z,967.5557
2018-01-03T06:13:27.505Z,967.5932
2018-01-03T06:14:27.508Z,967.5126
2018-01-03T06:15:27.561Z,967.526
2018-01-03T06:16:27.533Z,967.483
2018-01-03T06:17:27.513Z,967.4883
2018-01-03T06:18:27.515Z,967.4802
2018-01-03T06:19:27.511Z,967.5204
2018-01-03T06:20:27.514Z,967.448
2018-01-03T06:21:27.535Z,967.3512
2018-01-03T06:22:27.517Z,967.3324
2018-01-03T06:23:27.514Z,967.3217
2018-01-03T06:24:27.518Z,967.3834
2018-01-03T06:25:27.520Z,967.421
2018-01-03T06:26:27.869Z,967.2866
2018-01-03T06:27:27.654Z,967.1873
2018-01-03T06:28:27.523Z,967.0906
2018-01-03T06:29:27.529Z,967.0879
2018-01-03T06:30:27.524Z,967.0664
2018-01-03T06:31:27.542Z,967.0986
2018-01-03T06:32:27.519Z,966.8971
2018-01-03T06:33:27.519Z,966.8809
2018-01-03T06:34:27.538Z,966.9615
2018-01-03T06:35:27.577Z,966.8273
2018-01-03T06:36:33.280Z,966.9376
2018-01-03T06:37:27.527Z,966.9188
2018-01-03T06:38:27.529Z,966.7817
2018-01-03T06:39:27.835Z,966.8732
2018-01-03T06:40:27.834Z,966.8516
2018-01-03T06:41:27.561Z,966.7093
2018-01-03T06:42:27.538Z,966.7603
2018-01-03T06:43:27.533Z,966.7199
2018-01-03T06:44:27.927Z,966.8784
2018-01-03T06:45:29.411Z,966.7521
2018-01-03T06:46:30.644Z,966.9401
2018-01-03T06:47:27.698Z,966.9401
2018-01-03T06:48:27.541Z,966.873
2018-01-03T06:49:27.551Z,966.8193
2018-01-03T06:50:27.536Z,966.779
2018-01-03T06:51:27.564Z,966.7118
2018-01-03T06:52:27.591Z,966.7386
2018-01-03T06:53:27.541Z,966.7012
2018-01-03T06:54:27.542Z,966.7762
2018-01-03T06:55:27.563Z,966.6984
2018-01-03T06:56:27.566Z,966.7628
2018-01-03T06:57:27.861Z,966.6903
2018-01-03T06:58:27.545Z,966.779
2018-01-03T06:59:27.549Z,966.6607
2018-01-03T07:00:27.546Z,966.8434
2018-01-03T07:01:27.581Z,966.7413
2018-01-03T07:02:27.555Z,966.736
2018-01-03T07:03:27.550Z,966.7762
2018-01-03T07:04:27.546Z,966.7063
2018-01-03T07:05:27.638Z,966.6285
2018-01-03T07:06:27.689Z,966.6607
2018-01-03T07:07:27.556Z,966.4406
2018-01-03T07:08:27.654Z,966.5399
2018-01-03T07:09:27.553Z,966.5399
2018-01-03T07:10:27.560Z,966.5532
2018-01-03T07:11:27.563Z,966.5452
2018-01-03T07:12:27.563Z,966.5129
2018-01-03T07:13:27.567Z,966.5264
2018-01-03T07:14:27.568Z,966.4512
2018-01-03T07:15:27.564Z,966.4271
2018-01-03T07:16:27.609Z,966.5184
2018-01-03T07:17:27.564Z,966.4431
2018-01-03T07:18:27.561Z,966.4109
2018-01-03T07:19:27.566Z,966.4593
2018-01-03T07:20:27.563Z,966.3625
2018-01-03T07:21:27.593Z,966.2738
2018-01-03T07:22:27.563Z,966.2201
2018-01-03T07:23:27.570Z,966.2388
2018-01-03T07:24:27.576Z,966.2148
2018-01-03T07:25:27.568Z,966.2469
2018-01-03T07:26:27.605Z,966.1449
2018-01-03T07:27:27.576Z,966.1046
2018-01-03T07:28:27.575Z,965.9891
2018-01-03T07:29:27.573Z,966.0079
2018-01-03T07:30:27.572Z,965.9515
2018-01-03T07:31:27.601Z,965.9568
2018-01-03T07:32:27.618Z,965.9515
2018-01-03T07:33:27.578Z,965.9515
2018-01-03T07:34:27.575Z,965.9407
2018-01-03T07:35:27.577Z,965.9407
2018-01-03T07:36:27.577Z,965.8951
2018-01-03T07:37:27.592Z,965.8817
2018-01-03T07:38:27.582Z,965.8682
2018-01-03T07:39:27.588Z,965.9542
2018-01-03T07:40:27.580Z,965.836
2018-01-03T07:41:27.586Z,965.7771
2018-01-03T07:42:27.589Z,965.8333
2018-01-03T07:43:27.587Z,965.7503
2018-01-03T07:44:27.585Z,965.8121
2018-01-03T07:45:27.592Z,965.7288
2018-01-03T07:46:27.584Z,965.7258
2018-01-03T07:47:27.597Z,965.71
2018-01-03T07:48:27.594Z,965.7422
2018-01-03T07:49:27.592Z,965.734
2018-01-03T07:50:27.602Z,965.6857
2018-01-03T07:51:27.683Z,965.8093
2018-01-03T07:52:27.601Z,965.6454
2018-01-03T07:53:27.594Z,965.7529
2018-01-03T07:54:27.599Z,965.8468
2018-01-03T07:55:27.597Z,965.8683
2018-01-03T07:56:27.594Z,965.8953
2018-01-03T07:57:27.602Z,965.871
2018-01-03T07:58:27.600Z,965.8925
2018-01-03T07:59:27.602Z,965.8737
2018-01-03T08:00:27.608Z,965.8656
2018-01-03T08:01:27.609Z,965.8523
2018-01-03T08:02:27.623Z,965.8818
2018-01-03T08:03:27.608Z,965.8523
2018-01-03T08:04:27.600Z,965.8602
2018-01-03T08:05:27.603Z,965.8576
2018-01-03T08:06:27.609Z,965.8441
2018-01-03T08:07:27.633Z,965.8173
2018-01-03T08:08:27.613Z,965.8951
2018-01-03T08:09:27.610Z,965.8307
2018-01-03T08:10:27.663Z,966.0508
2018-01-03T08:11:27.607Z,965.9891
2018-01-03T08:12:27.636Z,966.0562
2018-01-03T08:13:27.626Z,966.1127
2018-01-03T08:14:27.615Z,966.1905
2018-01-03T08:15:27.622Z,966.2441
2018-01-03T08:16:27.620Z,966.2548
2018-01-03T08:17:27.644Z,966.2361
2018-01-03T08:18:27.625Z,966.2738
2018-01-03T08:19:32.248Z,966.1099
2018-01-03T08:20:27.619Z,966.1583
2018-01-03T08:21:27.625Z,966.228
2018-01-03T08:22:27.640Z,966.228
2018-01-03T08:23:27.622Z,966.2146
2018-01-03T08:24:27.616Z,966.0991
2018-01-03T08:25:27.633Z,966.1446
2018-01-03T08:26:27.631Z,966.1097
2018-01-03T08:27:27.650Z,966.0426
2018-01-03T08:28:27.628Z,966.0963
2018-01-03T08:29:27.628Z,966.1367
2018-01-03T08:30:27.636Z,966.056
2018-01-03T08:31:27.630Z,966.0641
2018-01-03T08:32:27.651Z,966.1393
2018-01-03T08:33:27.728Z,966.158
2018-01-03T08:34:27.624Z,966.0641
2018-01-03T08:35:27.636Z,966.1715
2018-01-03T08:36:27.666Z,966.1691
2018-01-03T08:37:27.653Z,966.244
2018-01-03T08:38:27.637Z,966.2574
2018-01-03T08:39:27.640Z,966.244
2018-01-03T08:40:27.638Z,966.3705
2018-01-03T08:41:27.650Z,966.3461
2018-01-03T08:42:28.001Z,966.3461
2018-01-03T08:43:27.640Z,966.3168
2018-01-03T08:44:27.645Z,966.3782
2018-01-03T08:45:27.642Z,966.4376
2018-01-03T08:46:27.642Z,966.451
2018-01-03T08:47:27.674Z,966.3192
2018-01-03T08:48:27.646Z,966.3571
2018-01-03T08:49:27.653Z,966.3782
2018-01-03T08:50:27.663Z,966.2684
2018-01-03T08:51:27.646Z,966.1769
2018-01-03T08:52:27.674Z,966.1959
2018-01-03T08:53:27.652Z,966.1207
2018-01-03T08:54:27.655Z,966.1395
2018-01-03T08:55:28.755Z,966.1744
2018-01-03T08:56:27.661Z,966.1529
2018-01-03T08:57:27.683Z,966.1314
2018-01-03T08:58:27.661Z,966.2039
2018-01-03T08:59:27.662Z,966.1663
2018-01-03T09:00:27.661Z,966.1716
2018-01-03T09:01:27.658Z,966.1635
2018-01-03T09:02:27.680Z,966.1985
2018-01-03T09:03:27.662Z,966.2039
2018-01-03T09:04:27.667Z,966.1932
2018-01-03T09:05:27.746Z,966.2335
2018-01-03T09:06:27.665Z,966.3193
2018-01-03T09:07:27.682Z,966.2791
2018-01-03T09:08:27.668Z,966.271
2018-01-03T09:09:27.683Z,966.2925
2018-01-03T09:10:27.668Z,966.3649
2018-01-03T09:11:27.672Z,966.4348
2018-01-03T09:12:27.689Z,966.4724
2018-01-03T09:13:27.670Z,966.5261
2018-01-03T09:14:27.668Z,966.6899
2018-01-03T09:15:27.666Z,966.7437
2018-01-03T09:16:27.672Z,966.6925
2018-01-03T09:17:27.699Z,966.7302
2018-01-03T09:18:27.677Z,966.7274
2018-01-03T09:19:27.679Z,966.5798
2018-01-03T09:20:27.677Z,966.6389
2018-01-03T09:21:27.687Z,966.6119
2018-01-03T09:22:27.700Z,966.6226
2018-01-03T09:23:27.676Z,966.6523
2018-01-03T09:24:27.683Z,966.7865
2018-01-03T09:25:27.691Z,966.7515
2018-01-03T09:26:27.678Z,966.7381
2018-01-03T09:27:27.694Z,966.8885
2018-01-03T09:28:27.681Z,966.8859
2018-01-03T09:29:27.894Z,966.894
2018-01-03T09:30:27.692Z,966.9208
2018-01-03T09:31:32.272Z,966.8993
2018-01-03T09:32:27.701Z,966.9395
2018-01-03T09:33:27.692Z,966.9529
2018-01-03T09:34:27.687Z,966.9261
2018-01-03T09:35:28.072Z,966.9395
2018-01-03T09:36:27.695Z,966.8777
2018-01-03T09:37:27.711Z,966.918
2018-01-03T09:38:27.698Z,966.9395
2018-01-03T09:39:27.698Z,966.9583
2018-01-03T09:40:27.695Z,966.9205
2018-01-03T09:41:27.697Z,966.9583
2018-01-03T09:42:27.737Z,966.9233
2018-01-03T09:43:27.701Z,966.9636
2018-01-03T09:44:27.698Z,966.9556
2018-01-03T09:45:27.699Z,966.9312
2018-01-03T09:46:27.695Z,966.8909
2018-01-03T09:47:27.793Z,966.9528
2018-01-03T09:48:29.436Z,966.9877
2018-01-03T09:49:27.707Z,967.0065
2018-01-03T09:50:27.716Z,967.0065
2018-01-03T09:51:27.707Z,967.0655
2018-01-03T09:52:27.714Z,967.1407
2018-01-03T09:53:27.714Z,967.1863
2018-01-03T09:54:27.709Z,967.24
2018-01-03T09:55:27.708Z,967.1998
2018-01-03T09:56:27.709Z,967.1917
2018-01-03T09:57:27.714Z,967.2372
2018-01-03T09:58:27.712Z,967.216
2018-01-03T09:59:27.720Z,967.2563
2018-01-03T10:00:27.715Z,967.3421
2018-01-03T10:01:28.099Z,967.3287
2018-01-03T10:02:28.213Z,967.3421
2018-01-03T10:03:27.720Z,967.3421
2018-01-03T10:04:27.719Z,967.3959
2018-01-03T10:05:28.416Z,967.4764
2018-01-03T10:06:27.730Z,967.4817
2018-01-03T10:07:27.728Z,967.4549
2018-01-03T10:08:27.739Z,967.616
2018-01-03T10:09:27.724Z,967.546
2018-01-03T10:10:27.734Z,967.5245
2018-01-03T10:11:27.990Z,967.4737
2018-01-03T10:12:27.743Z,967.5273
2018-01-03T10:13:27.751Z,967.5327
2018-01-03T10:14:27.727Z,967.581
2018-01-03T10:15:27.736Z,967.5729
2018-01-03T10:16:27.855Z,967.6588
2018-01-03T10:17:27.727Z,967.5298
2018-01-03T10:18:27.766Z,967.7125
2018-01-03T10:19:27.731Z,967.7258
2018-01-03T10:20:27.736Z,967.6588
2018-01-03T10:21:27.736Z,967.7204
2018-01-03T10:22:27.737Z,967.7849
2018-01-03T10:23:27.757Z,967.7634
2018-01-03T10:24:27.736Z,967.75
2018-01-03T10:25:27.735Z,967.8118
2018-01-03T10:26:27.739Z,967.6747
2018-01-03T10:27:27.742Z,967.8306
2018-01-03T10:28:27.763Z,967.7659
2018-01-03T10:29:27.742Z,967.8171
2018-01-03T10:30:27.737Z,967.8253
2018-01-03T10:31:27.740Z,967.8278
2018-01-03T10:32:27.874Z,967.9407
2018-01-03T10:33:27.774Z,967.8036
2018-01-03T10:34:27.745Z,967.8306
2018-01-03T10:35:27.744Z,967.8948
2018-01-03T10:36:27.753Z,967.9351
2018-01-03T10:37:27.751Z,967.8493
2018-01-03T10:38:27.774Z,967.9539
2018-01-03T10:39:27.758Z,967.9888
2018-01-03T10:40:27.750Z,968.0934
2018-01-03T10:41:27.757Z,967.9457
2018-01-03T10:42:27.770Z,967.9324
2018-01-03T10:43:27.777Z,967.8946
2018-01-03T10:44:27.765Z,967.8946
2018-01-03T10:45:27.758Z,967.9539
2018-01-03T10:46:27.767Z,967.9189
2018-01-03T10:47:27.754Z,967.8437
2018-01-03T10:48:27.781Z,967.9242
2018-01-03T10:49:27.770Z,967.8759
2018-01-03T10:50:27.764Z,967.9832
2018-01-03T10:51:27.760Z,967.8759
2018-01-03T10:52:27.765Z,967.8812
2018-01-03T10:53:27.802Z,967.8652
2018-01-03T10:54:27.762Z,967.8812
2018-01-03T10:55:27.767Z,967.9295
2018-01-03T10:56:27.770Z,967.8543
2018-01-03T10:57:27.767Z,967.8652
2018-01-03T10:58:27.884Z,967.8465
2018-01-03T10:59:27.765Z,967.9539
2018-01-03T11:00:27.769Z,967.9405
2018-01-03T11:01:27.773Z,967.8116
2018-01-03T11:02:27.769Z,967.8571
2018-01-03T11:03:27.801Z,967.8974
2018-01-03T11:04:27.784Z,967.825
2018-01-03T11:05:27.773Z,967.8597
2018-01-03T11:06:27.811Z,967.8893
2018-01-03T11:07:27.777Z,967.9512
2018-01-03T11:08:27.812Z,967.9243
2018-01-03T11:09:27.785Z,967.8652
2018-01-03T11:10:27.779Z,967.9162
2018-01-03T11:11:27.777Z,967.8918
2018-01-03T11:12:27.776Z,967.9268
2018-01-03T11:13:27.807Z,967.924
2018-01-03T11:14:27.788Z,967.8837
2018-01-03T11:15:27.781Z,967.9321
2018-01-03T11:16:27.782Z,967.9671
2018-01-03T11:17:27.789Z,967.8865
2018-01-03T11:18:27.807Z,967.9671
2018-01-03T11:19:27.792Z,967.806
2018-01-03T11:20:27.792Z,967.9052
2018-01-03T11:21:27.795Z,967.8757
2018-01-03T11:22:27.785Z,967.9052
2018-01-03T11:23:27.818Z,967.8301
2018-01-03T11:24:27.794Z,967.8622
2018-01-03T11:25:27.796Z,967.8488
2018-01-03T11:26:27.813Z,967.7898
2018-01-03T11:27:27.796Z,967.8248
2018-01-03T11:28:27.819Z,967.8382
2018-01-03T11:29:27.799Z,967.8757
2018-01-03T11:30:27.798Z,967.8301
2018-01-03T11:31:27.796Z,967.8085
2018-01-03T11:32:27.797Z,967.8622
2018-01-03T11:33:27.827Z,967.8085
2018-01-03T11:34:27.812Z,967.771
2018-01-03T11:35:27.801Z,967.8354
2018-01-03T11:36:27.802Z,967.7763
2018-01-03T11:37:27.805Z,967.7307
2018-01-03T11:38:27.831Z,967.7548
2018-01-03T11:39:27.808Z,967.7844
2018-01-03T11:40:27.810Z,967.728
2018-01-03T11:41:27.808Z,967.6446
2018-01-03T11:42:27.809Z,967.7414
2018-01-03T11:43:27.832Z,967.728
2018-01-03T11:44:27.812Z,967.7654
2018-01-03T11:45:27.810Z,967.7951
2018-01-03T11:46:27.815Z,967.7629